Time;durP1;ratioP1;P1;durP2;ratioP2;P2;SDS_P1;SDS_P2;PMS_P1;PMS_P2;Temp;Humidity;BMP_temperature;BMP_pressure;BME280_temperature;BME280_humidity;BME280_pressure;Samples;Min_cycle;Max_cycle;Signal;HPM_P1;HPM_P2
2023/09/30 00:01:02;;;;;;;;;;;23.50;54.10;;;;;;5093144;28;19971;-60
2023/09/30 00:03:29;;;;;;;;;;;23.50;54.10;;;;;;5095680;28;19963;-61
2023/09/30 00:05:57;;;;;;;;;;;23.50;54.10;;;;;;5096319;28;19924;-60
2023/09/30 00:08:24;;;;;;;;;;;23.50;54.20;;;;;;5096388;28;19924;-61
2023/09/30 00:10:54;;;;;;;;;;;23.50;54.20;;;;;;5097025;28;19924;-60
2023/09/30 00:13:21;;;;;;;;;;;23.50;54.20;;;;;;5097378;28;20389;-60
2023/09/30 00:15:49;;;;;;;;;;;23.50;54.20;;;;;;5097057;28;20330;-60
2023/09/30 00:18:16;;;;;;;;;;;23.50;54.20;;;;;;5096469;28;20369;-61
2023/09/30 00:20:43;;;;;;;;;;;23.40;54.20;;;;;;5095842;28;20011;-60
2023/09/30 00:23:10;;;;;;;;;;;23.40;54.20;;;;;;5096358;28;19924;-60
2023/09/30 00:25:37;;;;;;;;;;;23.40;54.20;;;;;;5096266;28;19924;-60
2023/09/30 00:28:05;;;;;;;;;;;23.50;54.30;;;;;;5096500;28;19928;-60
2023/09/30 00:30:32;;;;;;;;;;;23.40;54.20;;;;;;5095402;28;20419;-60
2023/09/30 00:32:59;;;;;;;;;;;23.40;54.20;;;;;;5096711;28;19926;-60
2023/09/30 00:35:26;;;;;;;;;;;23.40;54.20;;;;;;5096646;28;20376;-61
2023/09/30 00:37:53;;;;;;;;;;;23.40;54.20;;;;;;5097075;28;19924;-60
2023/09/30 00:40:20;;;;;;;;;;;23.40;54.30;;;;;;5096310;28;19924;-60
2023/09/30 00:42:47;;;;;;;;;;;23.40;54.20;;;;;;5096690;28;20435;-60
2023/09/30 00:45:14;;;;;;;;;;;23.40;54.20;;;;;;5096455;28;19969;-60
2023/09/30 00:47:41;;;;;;;;;;;23.40;54.80;;;;;;5096917;28;19924;-61
2023/09/30 00:50:10;;;;;;;;;;;23.40;54.30;;;;;;5096270;28;20285;-60
2023/09/30 00:52:38;;;;;;;;;;;23.40;54.20;;;;;;5096861;28;19989;-60
2023/09/30 00:55:06;;;;;;;;;;;23.40;54.30;;;;;;5095682;28;20433;-60
2023/09/30 00:57:34;;;;;;;;;;;23.40;54.20;;;;;;5096841;28;19928;-60
2023/09/30 01:00:01;;;;;;;;;;;23.40;54.30;;;;;;5095832;28;19924;-60
2023/09/30 01:02:28;;;;;;;;;;;23.40;54.20;;;;;;5096445;28;19970;-61
2023/09/30 01:04:56;;;;;;;;;;;23.40;54.30;;;;;;5096076;28;19924;-60
2023/09/30 01:07:23;;;;;;;;;;;23.40;54.30;;;;;;5094571;28;20150;-60
2023/09/30 01:09:50;;;;;;;;;;;23.40;54.20;;;;;;5095556;28;19975;-60
2023/09/30 01:12:17;;;;;;;;;;;23.40;54.20;;;;;;5095296;28;19954;-60
2023/09/30 01:14:44;;;;;;;;;;;23.40;54.20;;;;;;5093782;28;20295;-60
2023/09/30 01:17:13;;;;;;;;;;;23.40;54.20;;;;;;5095984;28;20338;-60
2023/09/30 01:19:42;;;;;;;;;;;23.40;54.10;;;;;;5095346;28;20342;-61
2023/09/30 01:22:10;;;;;;;;;;;23.40;54.20;;;;;;5096207;28;20036;-60
2023/09/30 01:24:40;;;;;;;;;;;23.40;54.20;;;;;;5096162;28;19924;-61
2023/09/30 01:27:08;;;;;;;;;;;23.40;54.20;;;;;;5095845;28;19928;-60
2023/09/30 01:29:38;;;;;;;;;;;23.40;54.20;;;;;;5095099;28;19924;-61
2023/09/30 01:32:09;;;;;;;;;;;23.40;54.20;;;;;;5095435;28;19924;-60
2023/09/30 01:34:37;;;;;;;;;;;23.40;54.30;;;;;;5094984;28;19931;-61
2023/09/30 01:37:04;;;;;;;;;;;23.40;54.20;;;;;;5095873;28;19928;-60
2023/09/30 01:39:32;;;;;;;;;;;23.40;54.20;;;;;;5095603;28;19928;-62
2023/09/30 01:41:59;;;;;;;;;;;23.40;54.20;;;;;;5095476;28;20028;-60
2023/09/30 01:44:27;;;;;;;;;;;23.40;54.20;;;;;;5095851;28;20285;-60
2023/09/30 01:46:54;;;;;;;;;;;23.40;54.30;;;;;;5094699;28;20338;-60
2023/09/30 01:49:24;;;;;;;;;;;23.40;54.30;;;;;;5094850;28;19927;-60
2023/09/30 01:51:51;;;;;;;;;;;23.40;54.30;;;;;;5095781;28;19927;-60
2023/09/30 01:54:18;;;;;;;;;;;23.40;54.30;;;;;;5095310;28;19977;-60
2023/09/30 01:56:45;;;;;;;;;;;23.40;54.30;;;;;;5095484;28;20292;-61
2023/09/30 01:59:12;;;;;;;;;;;23.40;54.30;;;;;;5095206;28;19993;-60
2023/09/30 02:01:40;;;;;;;;;;;23.40;54.30;;;;;;5094807;28;19944;-61
2023/09/30 02:04:07;;;;;;;;;;;23.40;54.30;;;;;;5095302;28;20273;-60
2023/09/30 02:06:35;;;;;;;;;;;23.30;54.30;;;;;;5095495;28;20388;-60
2023/09/30 02:09:04;;;;;;;;;;;23.30;54.30;;;;;;5095261;28;19931;-60
2023/09/30 02:11:31;;;;;;;;;;;23.30;54.30;;;;;;5094931;28;19978;-60
2023/09/30 02:13:58;;;;;;;;;;;23.30;54.30;;;;;;5094949;28;19930;-61
2023/09/30 02:16:25;;;;;;;;;;;23.30;54.30;;;;;;5095191;28;19928;-60
2023/09/30 02:18:53;;;;;;;;;;;23.30;54.30;;;;;;5093343;28;19930;-61
2023/09/30 02:21:21;;;;;;;;;;;23.30;54.20;;;;;;5094904;28;19985;-61
2023/09/30 02:23:49;;;;;;;;;;;23.40;54.30;;;;;;5095150;28;20359;-60
2023/09/30 02:26:17;;;;;;;;;;;23.40;54.30;;;;;;5094518;28;20015;-61
2023/09/30 02:28:44;;;;;;;;;;;23.40;54.20;;;;;;5094842;28;19978;-61
2023/09/30 02:31:10;;;;;;;;;;;23.40;54.20;;;;;;5093702;28;20330;-61
2023/09/30 02:33:38;;;;;;;;;;;23.40;54.20;;;;;;5094228;28;19924;-60
2023/09/30 02:36:09;;;;;;;;;;;23.40;54.20;;;;;;5094183;28;19969;-61
2023/09/30 02:38:39;;;;;;;;;;;23.40;54.20;;;;;;5094118;28;19924;-60
2023/09/30 02:41:06;;;;;;;;;;;23.40;54.20;;;;;;5093976;28;19924;-60
2023/09/30 02:43:33;;;;;;;;;;;23.40;54.20;;;;;;5094191;28;19928;-60
2023/09/30 02:46:00;;;;;;;;;;;23.40;54.20;;;;;;5092176;28;20334;-61
2023/09/30 02:48:27;;;;;;;;;;;23.40;54.20;;;;;;5093245;28;20376;-60
2023/09/30 02:50:55;;;;;;;;;;;23.30;54.20;;;;;;5093627;28;20384;-60
2023/09/30 02:53:22;;;;;;;;;;;23.40;54.30;;;;;;5093662;28;19979;-60
2023/09/30 02:55:52;;;;;;;;;;;23.40;54.30;;;;;;5093280;28;19924;-61
2023/09/30 02:58:19;;;;;;;;;;;23.30;54.20;;;;;;5094185;28;19970;-60
2023/09/30 03:00:49;;;;;;;;;;;23.40;54.30;;;;;;5093901;28;20352;-61
2023/09/30 03:03:16;;;;;;;;;;;23.30;54.20;;;;;;5093092;28;19931;-60
2023/09/30 03:05:45;;;;;;;;;;;23.30;54.20;;;;;;5091579;28;19924;-60
2023/09/30 03:08:12;;;;;;;;;;;23.30;54.20;;;;;;5093729;28;19935;-61
2023/09/30 03:10:40;;;;;;;;;;;23.30;54.20;;;;;;5093314;28;19973;-61
2023/09/30 03:13:08;;;;;;;;;;;23.30;54.20;;;;;;5093066;28;19954;-61
2023/09/30 03:15:36;;;;;;;;;;;23.30;54.20;;;;;;5092684;28;20406;-61
2023/09/30 03:18:04;;;;;;;;;;;23.30;54.20;;;;;;5093777;28;20285;-61
2023/09/30 03:20:31;;;;;;;;;;;23.30;54.20;;;;;;5092514;28;19928;-61
2023/09/30 03:22:59;;;;;;;;;;;23.30;54.20;;;;;;5092772;28;19995;-61
2023/09/30 03:25:26;;;;;;;;;;;23.30;54.20;;;;;;5092769;28;20429;-61
2023/09/30 03:27:54;;;;;;;;;;;23.30;54.20;;;;;;5093728;28;19924;-60
2023/09/30 03:30:21;;;;;;;;;;;23.30;54.20;;;;;;5092852;28;20464;-61
2023/09/30 03:32:48;;;;;;;;;;;23.30;54.20;;;;;;5093215;28;20380;-60
2023/09/30 03:35:18;;;;;;;;;;;23.30;54.20;;;;;;5092519;28;19932;-60
2023/09/30 03:37:47;;;;;;;;;;;23.30;54.30;;;;;;5092793;28;19931;-60
2023/09/30 03:40:18;;;;;;;;;;;23.30;54.30;;;;;;5092480;28;20002;-60
2023/09/30 03:42:49;;;;;;;;;;;23.30;54.20;;;;;;5093670;28;19977;-60
2023/09/30 03:45:17;;;;;;;;;;;23.30;54.20;;;;;;5092512;28;19967;-61
2023/09/30 03:47:44;;;;;;;;;;;23.30;54.20;;;;;;5092965;28;20376;-61
2023/09/30 03:50:14;;;;;;;;;;;23.30;54.20;;;;;;5092525;28;19931;-60
2023/09/30 03:52:46;;;;;;;;;;;23.30;54.20;;;;;;5093265;28;19924;-60
2023/09/30 03:55:15;;;;;;;;;;;23.40;54.20;;;;;;5092289;28;19954;-60
2023/09/30 03:57:51;;;;;;;;;;;23.30;54.10;;;;;;5092745;28;19950;-60
2023/09/30 04:00:21;;;;;;;;;;;23.30;54.20;;;;;;5092646;28;19924;-60
2023/09/30 04:02:49;;;;;;;;;;;23.30;54.20;;;;;;5093365;28;19924;-60
2023/09/30 04:05:18;;;;;;;;;;;23.30;54.20;;;;;;5092017;28;19924;-61
2023/09/30 04:07:47;;;;;;;;;;;23.30;54.20;;;;;;5092116;28;19931;-60
2023/09/30 04:10:14;;;;;;;;;;;23.30;54.70;;;;;;5093044;28;19993;-61
2023/09/30 04:12:42;;;;;;;;;;;23.30;54.20;;;;;;5092373;28;19931;-60
2023/09/30 04:15:11;;;;;;;;;;;23.30;54.20;;;;;;5092444;28;20422;-61
2023/09/30 04:17:39;;;;;;;;;;;23.30;54.20;;;;;;5093082;28;19924;-61
2023/09/30 04:20:09;;;;;;;;;;;23.30;54.20;;;;;;5092359;28;19928;-61
2023/09/30 04:22:37;;;;;;;;;;;23.30;54.20;;;;;;5091901;28;19985;-60
2023/09/30 04:25:08;;;;;;;;;;;23.30;54.20;;;;;;5091590;28;19982;-61
2023/09/30 04:27:35;;;;;;;;;;;23.30;54.20;;;;;;5092661;28;19974;-60
2023/09/30 04:30:09;;;;;;;;;;;23.30;54.20;;;;;;5092185;28;19924;-61
2023/09/30 04:32:36;;;;;;;;;;;23.30;54.20;;;;;;5092884;28;19971;-61
2023/09/30 04:35:04;;;;;;;;;;;23.30;54.20;;;;;;5092187;28;19931;-61
2023/09/30 04:37:31;;;;;;;;;;;23.30;54.20;;;;;;5091483;28;19924;-60
2023/09/30 04:39:58;;;;;;;;;;;23.20;54.10;;;;;;5091194;28;20429;-60
2023/09/30 04:42:25;;;;;;;;;;;23.10;54.00;;;;;;5092773;28;19935;-61
2023/09/30 04:44:53;;;;;;;;;;;23.00;54.10;;;;;;5092060;28;20027;-60
2023/09/30 04:47:21;;;;;;;;;;;22.80;54.40;;;;;;5092036;28;20455;-59
2023/09/30 04:49:48;;;;;;;;;;;22.50;55.00;;;;;;5093890;28;20438;-60
2023/09/30 04:52:16;;;;;;;;;;;22.20;53.40;;;;;;5095697;28;19975;-59
2023/09/30 04:54:44;;;;;;;;;;;22.00;52.30;;;;;;5096434;28;19924;-60
2023/09/30 04:57:12;;;;;;;;;;;21.70;50.80;;;;;;5095513;28;19924;-61
2023/09/30 04:59:39;;;;;;;;;;;21.40;50.60;;;;;;5095431;28;19924;-60
2023/09/30 05:02:06;;;;;;;;;;;21.10;50.20;;;;;;5095813;28;19932;-61
2023/09/30 05:04:33;;;;;;;;;;;20.80;50.30;;;;;;5095905;28;19925;-60
2023/09/30 05:07:00;;;;;;;;;;;20.50;52.00;;;;;;5096137;28;20001;-60
2023/09/30 05:09:28;;;;;;;;;;;20.20;51.30;;;;;;5096360;28;19969;-60
2023/09/30 05:11:55;;;;;;;;;;;20.00;50.00;;;;;;5095713;28;19928;-60
2023/09/30 05:14:22;;;;;;;;;;;19.70;50.80;;;;;;5095721;28;19974;-60
2023/09/30 05:16:49;;;;;;;;;;;19.50;52.00;;;;;;5095347;28;19931;-60
2023/09/30 05:19:16;;;;;;;;;;;19.40;51.70;;;;;;5095462;28;19924;-60
2023/09/30 05:21:44;;;;;;;;;;;19.20;51.20;;;;;;5095388;28;20426;-61
2023/09/30 05:24:11;;;;;;;;;;;19.00;53.80;;;;;;5095203;28;19967;-61
2023/09/30 05:26:38;;;;;;;;;;;18.90;52.50;;;;;;5094871;28;19924;-61
2023/09/30 05:29:05;;;;;;;;;;;18.80;52.00;;;;;;5095752;28;20015;-61
2023/09/30 05:31:32;;;;;;;;;;;18.70;52.30;;;;;;5094514;28;19974;-61
2023/09/30 05:34:00;;;;;;;;;;;18.60;53.10;;;;;;5095328;28;20026;-60
2023/09/30 05:36:27;;;;;;;;;;;18.50;54.50;;;;;;5095166;28;19924;-60
2023/09/30 05:38:55;;;;;;;;;;;18.40;53.70;;;;;;5095655;28;19951;-61
2023/09/30 05:41:22;;;;;;;;;;;18.40;53.10;;;;;;5094553;28;19928;-60
2023/09/30 05:43:49;;;;;;;;;;;18.30;53.10;;;;;;5095057;28;20341;-61
2023/09/30 05:46:18;;;;;;;;;;;18.20;52.60;;;;;;5094715;28;19923;-61
2023/09/30 05:48:45;;;;;;;;;;;18.20;53.30;;;;;;5095335;28;19928;-60
2023/09/30 05:51:16;;;;;;;;;;;18.20;53.10;;;;;;5093574;28;19969;-61
2023/09/30 05:53:43;;;;;;;;;;;18.10;52.90;;;;;;5094638;28;20278;-60
2023/09/30 05:56:11;;;;;;;;;;;18.10;53.10;;;;;;5093571;28;20026;-60
2023/09/30 05:58:38;;;;;;;;;;;18.10;53.30;;;;;;5094144;28;19970;-60
2023/09/30 06:01:10;;;;;;;;;;;18.00;55.00;;;;;;5093949;28;20403;-60
2023/09/30 06:03:41;;;;;;;;;;;18.00;54.30;;;;;;5093722;28;19924;-60
2023/09/30 06:06:12;;;;;;;;;;;18.00;54.30;;;;;;5094477;28;19978;-60
2023/09/30 06:08:39;;;;;;;;;;;18.00;54.00;;;;;;5094588;28;19974;-60
2023/09/30 06:11:06;;;;;;;;;;;18.00;54.20;;;;;;5094631;28;20331;-60
2023/09/30 06:13:33;;;;;;;;;;;18.00;54.50;;;;;;5094834;28;19928;-60
2023/09/30 06:16:02;;;;;;;;;;;18.00;53.20;;;;;;5093950;28;19969;-60
2023/09/30 06:18:29;;;;;;;;;;;18.00;53.80;;;;;;5094856;28;19924;-60
2023/09/30 06:20:57;;;;;;;;;;;18.00;54.00;;;;;;5092930;28;20455;-60
2023/09/30 06:23:24;;;;;;;;;;;17.90;54.30;;;;;;5094683;28;19981;-60
2023/09/30 06:25:52;;;;;;;;;;;17.90;54.60;;;;;;5094068;28;19951;-60
2023/09/30 06:28:25;;;;;;;;;;;17.90;53.70;;;;;;5094396;28;19928;-61
2023/09/30 06:30:52;;;;;;;;;;;17.90;54.20;;;;;;5093568;28;19924;-60
2023/09/30 06:33:21;;;;;;;;;;;17.90;55.90;;;;;;5094561;28;19931;-61
2023/09/30 06:35:51;;;;;;;;;;;17.90;54.90;;;;;;5093636;28;20433;-60
2023/09/30 06:38:18;;;;;;;;;;;17.90;55.40;;;;;;5094450;28;19924;-60
2023/09/30 06:40:48;;;;;;;;;;;17.90;55.20;;;;;;5094102;28;19931;-60
2023/09/30 06:43:15;;;;;;;;;;;18.00;55.80;;;;;;5094258;28;20296;-61
2023/09/30 06:45:43;;;;;;;;;;;18.00;55.80;;;;;;5093599;28;20334;-61
2023/09/30 06:48:12;;;;;;;;;;;18.00;55.30;;;;;;5092957;28;19931;-60
2023/09/30 06:50:43;;;;;;;;;;;18.00;54.50;;;;;;5093609;28;19924;-60
2023/09/30 06:53:10;;;;;;;;;;;18.00;54.70;;;;;;5093206;28;20308;-61
2023/09/30 06:55:38;;;;;;;;;;;18.00;55.00;;;;;;5093216;28;19930;-61
2023/09/30 06:58:07;;;;;;;;;;;18.00;55.70;;;;;;5094001;28;19924;-61
2023/09/30 07:00:35;;;;;;;;;;;18.00;54.20;;;;;;5092213;28;19985;-61
2023/09/30 07:03:02;;;;;;;;;;;18.10;63.30;;;;;;5094413;28;19924;-61
2023/09/30 07:05:29;;;;;;;;;;;18.40;64.40;;;;;;5092662;28;20265;-61
2023/09/30 07:07:56;;;;;;;;;;;18.90;63.50;;;;;;5093507;28;19971;-61
2023/09/30 07:10:23;;;;;;;;;;;19.30;62.20;;;;;;5092750;28;19924;-60
2023/09/30 07:12:50;;;;;;;;;;;19.70;61.10;;;;;;5092178;28;19973;-61
2023/09/30 07:15:17;;;;;;;;;;;20.10;60.10;;;;;;5092102;28;19924;-61
2023/09/30 07:17:47;;;;;;;;;;;20.40;59.30;;;;;;5093447;28;19924;-61
2023/09/30 07:20:15;;;;;;;;;;;20.70;58.60;;;;;;5092683;28;19965;-60
2023/09/30 07:22:42;;;;;;;;;;;21.00;58.00;;;;;;5093222;28;20019;-61
2023/09/30 07:25:25;;;;;;;;;;;21.20;57.40;;;;;;5092498;28;19968;-61
2023/09/30 07:27:52;;;;;;;;;;;21.40;56.90;;;;;;5093549;28;19960;-61
2023/09/30 07:30:20;;;;;;;;;;;21.50;56.80;;;;;;5093179;28;19956;-61
2023/09/30 07:32:47;;;;;;;;;;;21.70;56.20;;;;;;5093806;28;20368;-61
2023/09/30 07:35:15;;;;;;;;;;;21.80;55.90;;;;;;5093254;28;19924;-61
2023/09/30 07:37:43;;;;;;;;;;;22.00;55.70;;;;;;5093559;28;19924;-61
2023/09/30 07:40:10;;;;;;;;;;;22.10;55.50;;;;;;5093763;28;19924;-60
2023/09/30 07:42:38;;;;;;;;;;;22.20;55.30;;;;;;5093464;28;20287;-61
2023/09/30 07:45:06;;;;;;;;;;;22.30;55.10;;;;;;5093716;28;19930;-61
2023/09/30 07:47:33;;;;;;;;;;;22.40;54.90;;;;;;5092847;28;20334;-61
2023/09/30 07:50:06;;;;;;;;;;;22.50;55.40;;;;;;5091120;28;19931;-61
2023/09/30 07:52:33;;;;;;;;;;;22.60;54.60;;;;;;5092589;28;19924;-62
2023/09/30 07:55:00;;;;;;;;;;;22.70;54.40;;;;;;5093652;28;19924;-61
2023/09/30 07:57:27;;;;;;;;;;;22.80;54.30;;;;;;5092676;28;19935;-61
2023/09/30 07:59:55;;;;;;;;;;;22.80;54.20;;;;;;5093166;28;19930;-61
2023/09/30 08:02:24;;;;;;;;;;;22.90;54.10;;;;;;5093458;28;20015;-60
2023/09/30 08:04:51;;;;;;;;;;;23.00;54.00;;;;;;5093215;28;20028;-61
2023/09/30 08:07:19;;;;;;;;;;;23.00;53.80;;;;;;5092726;28;19931;-61
2023/09/30 08:09:47;;;;;;;;;;;23.10;53.70;;;;;;5093202;28;20384;-61
2023/09/30 08:12:14;;;;;;;;;;;23.20;53.60;;;;;;5092637;28;19924;-61
2023/09/30 08:14:44;;;;;;;;;;;23.20;53.40;;;;;;5092649;28;20014;-61
2023/09/30 08:17:12;;;;;;;;;;;23.30;53.40;;;;;;5092215;28;19924;-61
2023/09/30 08:19:39;;;;;;;;;;;23.30;53.20;;;;;;5091556;28;19924;-61
2023/09/30 08:22:06;;;;;;;;;;;23.40;53.10;;;;;;5092907;28;20280;-60
2023/09/30 08:24:33;;;;;;;;;;;23.40;53.00;;;;;;5096956;28;19978;-61
2023/09/30 08:27:01;;;;;;;;;;;23.40;53.00;;;;;;5096005;28;20439;-61
2023/09/30 08:29:28;;;;;;;;;;;23.50;53.00;;;;;;5096726;28;19924;-61
2023/09/30 08:31:55;;;;;;;;;;;23.50;52.90;;;;;;5096220;28;19924;-61
2023/09/30 08:34:24;;;;;;;;;;;23.50;52.90;;;;;;5096903;28;19928;-61
2023/09/30 08:36:51;;;;;;;;;;;23.60;52.90;;;;;;5096794;28;20384;-61
2023/09/30 08:39:18;;;;;;;;;;;23.60;52.80;;;;;;5096017;28;20400;-61
2023/09/30 08:41:46;;;;;;;;;;;23.60;52.90;;;;;;5096094;28;19931;-61
2023/09/30 08:44:13;;;;;;;;;;;23.70;52.90;;;;;;5106298;28;20425;-61
2023/09/30 08:46:41;;;;;;;;;;;23.70;52.90;;;;;;5116358;28;19953;-63
2023/09/30 08:49:09;;;;;;;;;;;23.70;52.90;;;;;;5115455;28;20023;-61
2023/09/30 08:51:36;;;;;;;;;;;23.70;52.90;;;;;;5115968;28;19924;-61
2023/09/30 08:54:05;;;;;;;;;;;23.80;52.80;;;;;;5116545;28;20368;-61
2023/09/30 08:56:35;;;;;;;;;;;23.80;52.80;;;;;;5115862;28;19974;-61
2023/09/30 08:59:03;;;;;;;;;;;23.80;52.60;;;;;;5116927;28;19975;-61
2023/09/30 09:01:30;;;;;;;;;;;23.90;52.50;;;;;;5115781;27;20364;-61
2023/09/30 09:03:58;;;;;;;;;;;23.90;52.40;;;;;;5116246;28;19958;-61
2023/09/30 09:06:26;;;;;;;;;;;23.90;58.20;;;;;;5115945;28;20264;-61
2023/09/30 09:08:53;;;;;;;;;;;23.90;61.80;;;;;;5116030;28;19931;-61
2023/09/30 09:11:20;;;;;;;;;;;23.60;46.80;;;;;;5115278;28;19930;-61
2023/09/30 09:13:49;;;;;;;;;;;23.20;45.60;;;;;;5116288;28;19923;-61
2023/09/30 09:16:21;;;;;;;;;;;22.70;47.00;;;;;;5116078;28;19927;-61
2023/09/30 09:18:49;;;;;;;;;;;22.20;47.50;;;;;;5116346;28;19989;-61
2023/09/30 09:21:17;;;;;;;;;;;21.80;48.90;;;;;;5116407;28;20350;-61
2023/09/30 09:23:45;;;;;;;;;;;21.50;49.40;;;;;;5116698;28;20334;-61
2023/09/30 09:26:26;;;;;;;;;;;21.10;50.40;;;;;;5115064;28;20372;-61
2023/09/30 09:28:56;;;;;;;;;;;20.80;50.70;;;;;;5116017;28;19968;-61
2023/09/30 09:31:26;;;;;;;;;;;20.50;51.60;;;;;;5114016;28;19971;-60
2023/09/30 09:33:53;;;;;;;;;;;20.30;52.20;;;;;;5115361;28;19924;-61
2023/09/30 09:36:20;;;;;;;;;;;20.10;52.50;;;;;;5114886;28;19975;-60
2023/09/30 09:38:48;;;;;;;;;;;19.90;53.10;;;;;;5115906;28;20014;-61
2023/09/30 09:41:15;;;;;;;;;;;19.80;53.40;;;;;;5114603;28;20429;-61
2023/09/30 09:43:43;;;;;;;;;;;19.60;54.20;;;;;;5116214;28;20324;-61
2023/09/30 09:46:11;;;;;;;;;;;19.60;54.10;;;;;;5115477;28;20289;-61
2023/09/30 09:48:38;;;;;;;;;;;19.40;53.70;;;;;;5115252;28;19927;-61
2023/09/30 09:51:07;;;;;;;;;;;19.40;53.90;;;;;;5114589;28;19924;-61
2023/09/30 09:53:34;;;;;;;;;;;19.30;53.70;;;;;;5115987;28;19924;-61
2023/09/30 09:56:03;;;;;;;;;;;19.20;53.50;;;;;;5114766;28;20376;-61
2023/09/30 09:58:33;;;;;;;;;;;19.20;53.80;;;;;;5115777;28;20394;-61
2023/09/30 10:01:05;;;;;;;;;;;19.10;55.00;;;;;;5114919;28;20360;-60
2023/09/30 10:03:33;;;;;;;;;;;19.00;54.60;;;;;;5115530;28;20380;-61
2023/09/30 10:06:00;;;;;;;;;;;19.00;54.20;;;;;;5115281;28;19961;-61
2023/09/30 10:08:31;;;;;;;;;;;18.90;55.10;;;;;;5114984;28;20341;-60
2023/09/30 10:11:01;;;;;;;;;;;18.90;55.30;;;;;;5115099;28;20206;-61
2023/09/30 10:13:48;;;;;;;;;;;18.90;57.20;;;;;;5115657;28;19928;-61
2023/09/30 10:16:36;;;;;;;;;;;18.90;56.30;;;;;;5115581;28;20283;-61
2023/09/30 10:19:07;;;;;;;;;;;18.90;54.40;;;;;;5115628;28;19924;-61
2023/09/30 10:21:34;;;;;;;;;;;18.90;54.70;;;;;;5114629;28;19924;-60
2023/09/30 10:24:21;;;;;;;;;;;18.90;54.60;;;;;;5115159;28;19978;-61
2023/09/30 10:27:08;;;;;;;;;;;18.90;55.10;;;;;;5114613;28;19932;-61
2023/09/30 10:29:42;;;;;;;;;;;18.90;55.20;;;;;;5114968;28;19923;-61
2023/09/30 10:32:09;;;;;;;;;;;18.90;54.30;;;;;;5114132;28;19953;-61
2023/09/30 10:34:36;;;;;;;;;;;18.90;54.10;;;;;;5100404;28;20005;-61
2023/09/30 10:37:20;;;;;;;;;;;18.90;53.80;;;;;;5075795;28;19975;-61
2023/09/30 10:39:59;;;;;;;;;;;18.90;55.10;;;;;;5094079;28;20372;-61
2023/09/30 10:42:44;;;;;;;;;;;18.90;54.30;;;;;;5094528;28;19993;-61
2023/09/30 10:45:31;;;;;;;;;;;18.90;54.50;;;;;;5094521;28;19927;-61
2023/09/30 10:47:58;;;;;;;;;;;18.90;53.90;;;;;;5094348;28;19924;-62
2023/09/30 10:50:46;;;;;;;;;;;18.90;55.10;;;;;;5094128;28;20426;-62
2023/09/30 10:53:13;;;;;;;;;;;18.90;56.00;;;;;;5094076;28;19975;-62
2023/09/30 10:55:42;;;;;;;;;;;18.90;55.80;;;;;;5093694;28;19974;-62
2023/09/30 10:58:09;;;;;;;;;;;18.80;56.00;;;;;;5094251;28;19928;-62
2023/09/30 11:00:38;;;;;;;;;;;18.80;56.10;;;;;;5093916;28;19971;-61
2023/09/30 11:03:05;;;;;;;;;;;18.80;56.40;;;;;;5092962;28;19970;-62
2023/09/30 11:05:34;;;;;;;;;;;18.80;55.20;;;;;;5094007;28;19924;-62
2023/09/30 11:08:22;;;;;;;;;;;18.80;56.50;;;;;;5093868;28;20368;-62
2023/09/30 11:10:50;;;;;;;;;;;18.80;56.50;;;;;;5093226;28;19950;-61
2023/09/30 11:13:18;;;;;;;;;;;18.80;57.30;;;;;;5094277;28;19932;-62
2023/09/30 11:15:45;;;;;;;;;;;18.80;55.60;;;;;;5093884;28;20011;-62
2023/09/30 11:18:15;;;;;;;;;;;18.80;56.90;;;;;;5093099;28;21360;-62
2023/09/30 11:20:44;;;;;;;;;;;18.80;56.10;;;;;;5093753;28;19954;-62
2023/09/30 11:23:11;;;;;;;;;;;18.80;56.00;;;;;;5094103;28;19924;-62
2023/09/30 11:25:39;;;;;;;;;;;18.80;56.10;;;;;;5093678;28;20392;-62
2023/09/30 11:28:16;;;;;;;;;;;18.80;56.20;;;;;;5094054;28;19990;-64
2023/09/30 11:30:54;;;;;;;;;;;18.80;56.50;;;;;;5093612;28;20017;-62
2023/09/30 11:33:25;;;;;;;;;;;18.80;56.80;;;;;;5093217;28;19924;-62
2023/09/30 11:35:57;;;;;;;;;;;18.80;57.10;;;;;;5093948;28;19932;-62
2023/09/30 11:38:24;;;;;;;;;;;18.80;57.20;;;;;;5094118;28;19924;-62
2023/09/30 11:41:05;;;;;;;;;;;18.80;57.70;;;;;;5093362;28;20106;-62
2023/09/30 11:43:33;;;;;;;;;;;18.80;57.70;;;;;;5093677;28;19935;-62
2023/09/30 11:46:10;;;;;;;;;;;18.80;55.90;;;;;;5092887;28;20457;-62
2023/09/30 11:48:38;;;;;;;;;;;18.80;56.30;;;;;;5093175;28;20042;-62
2023/09/30 11:51:05;;;;;;;;;;;18.90;56.10;;;;;;5093009;28;20273;-62
2023/09/30 11:53:35;;;;;;;;;;;18.90;57.60;;;;;;5093379;28;19977;-62
2023/09/30 11:56:02;;;;;;;;;;;18.90;56.80;;;;;;5093762;28;20265;-62
2023/09/30 11:58:32;;;;;;;;;;;18.90;57.00;;;;;;5095183;28;19932;-62
2023/09/30 12:01:02;;;;;;;;;;;18.90;56.00;;;;;;5097248;28;20326;-62
2023/09/30 12:03:29;;;;;;;;;;;18.90;57.00;;;;;;5097047;28;19924;-62
2023/09/30 12:05:57;;;;;;;;;;;18.90;56.90;;;;;;5097231;28;20360;-62
2023/09/30 12:08:24;;;;;;;;;;;18.90;56.10;;;;;;5096496;28;19924;-62
2023/09/30 12:10:51;;;;;;;;;;;18.90;57.70;;;;;;5095042;28;19924;-62
2023/09/30 12:13:19;;;;;;;;;;;18.90;57.00;;;;;;5096976;28;19963;-62
2023/09/30 12:15:45;;;;;;;;;;;18.90;57.80;;;;;;5096766;28;19977;-62
2023/09/30 12:18:16;;;;;;;;;;;18.90;56.80;;;;;;5095834;28;20404;-62
2023/09/30 12:20:44;;;;;;;;;;;18.90;58.00;;;;;;5096270;28;19924;-62
2023/09/30 12:23:11;;;;;;;;;;;18.90;57.60;;;;;;5095642;28;20007;-61
2023/09/30 12:25:39;;;;;;;;;;;18.90;57.10;;;;;;5097012;28;20296;-62
2023/09/30 12:28:06;;;;;;;;;;;18.90;58.40;;;;;;5096816;28;20356;-62
2023/09/30 12:30:33;;;;;;;;;;;18.90;57.10;;;;;;5095911;28;19971;-62
2023/09/30 12:33:00;;;;;;;;;;;18.90;56.30;;;;;;5096038;28;19928;-62
2023/09/30 12:35:28;;;;;;;;;;;18.90;58.00;;;;;;5096659;28;20379;-62
2023/09/30 12:37:55;;;;;;;;;;;18.90;58.40;;;;;;5097098;28;20330;-62
2023/09/30 12:40:23;;;;;;;;;;;18.90;58.00;;;;;;5095756;28;20379;-62
2023/09/30 12:42:50;;;;;;;;;;;18.80;58.40;;;;;;5096524;28;19928;-62
2023/09/30 12:45:18;;;;;;;;;;;18.80;57.40;;;;;;5095367;28;19967;-62
2023/09/30 12:47:47;;;;;;;;;;;18.90;57.00;;;;;;5096465;28;19963;-62
2023/09/30 12:50:15;;;;;;;;;;;18.90;58.40;;;;;;5096170;28;20014;-62
2023/09/30 12:52:42;;;;;;;;;;;18.90;57.80;;;;;;5096941;28;19924;-62
2023/09/30 12:55:09;;;;;;;;;;;18.80;58.40;;;;;;5095896;28;20434;-62
2023/09/30 12:57:36;;;;;;;;;;;18.90;57.80;;;;;;5095613;28;20385;-62
2023/09/30 13:00:04;;;;;;;;;;;18.80;58.70;;;;;;5095030;28;19947;-62
2023/09/30 13:02:31;;;;;;;;;;;18.90;57.80;;;;;;5096606;28;19959;-62
2023/09/30 13:04:58;;;;;;;;;;;18.90;58.40;;;;;;5096623;28;19930;-62
2023/09/30 13:07:25;;;;;;;;;;;18.90;57.50;;;;;;5096163;28;19928;-63
2023/09/30 13:09:52;;;;;;;;;;;18.90;57.50;;;;;;5094812;28;19970;-62
2023/09/30 13:12:19;;;;;;;;;;;18.90;56.70;;;;;;5096217;28;19931;-62
2023/09/30 13:14:47;;;;;;;;;;;18.90;57.20;;;;;;5095913;28;20045;-62
2023/09/30 13:17:15;;;;;;;;;;;18.90;57.90;;;;;;5095730;28;19931;-62
2023/09/30 13:19:42;;;;;;;;;;;18.90;57.70;;;;;;5096024;28;19924;-61
2023/09/30 13:22:09;;;;;;;;;;;18.90;57.50;;;;;;5096195;28;19924;-62
2023/09/30 13:24:45;;;;;;;;;;;18.90;57.80;;;;;;5095853;28;19938;-62
2023/09/30 13:27:15;;;;;;;;;;;18.90;58.50;;;;;;5096091;28;19969;-62
2023/09/30 13:29:43;;;;;;;;;;;18.90;58.00;;;;;;5095712;28;19924;-62
2023/09/30 13:32:10;;;;;;;;;;;18.90;57.80;;;;;;5095787;28;20027;-62
2023/09/30 13:34:38;;;;;;;;;;;18.90;58.20;;;;;;5095668;28;19931;-62
2023/09/30 13:37:06;;;;;;;;;;;18.90;57.60;;;;;;5095453;28;19969;-62
2023/09/30 13:39:35;;;;;;;;;;;18.90;58.10;;;;;;5095851;28;20011;-62
2023/09/30 13:42:02;;;;;;;;;;;18.90;57.80;;;;;;5095310;28;20407;-61
2023/09/30 13:44:29;;;;;;;;;;;18.90;58.10;;;;;;5095648;28;19949;-63
2023/09/30 13:46:56;;;;;;;;;;;18.90;57.90;;;;;;5095861;28;20364;-62
2023/09/30 13:49:23;;;;;;;;;;;18.90;58.00;;;;;;5095545;28;19975;-62
2023/09/30 13:51:50;;;;;;;;;;;18.90;58.20;;;;;;5095237;28;19928;-62
2023/09/30 13:54:17;;;;;;;;;;;18.90;58.20;;;;;;5095905;28;19924;-62
2023/09/30 13:56:44;;;;;;;;;;;18.80;58.60;;;;;;5094961;28;20018;-62
2023/09/30 13:59:11;;;;;;;;;;;18.80;58.40;;;;;;5095320;28;19954;-62
2023/09/30 14:01:41;;;;;;;;;;;18.80;58.50;;;;;;5095374;28;19924;-62
2023/09/30 14:04:08;;;;;;;;;;;18.80;58.50;;;;;;5095135;28;19966;-62
2023/09/30 14:06:36;;;;;;;;;;;18.80;63.20;;;;;;5094671;28;20362;-62
2023/09/30 14:09:04;;;;;;;;;;;19.10;70.70;;;;;;5095240;28;20027;-62
2023/09/30 14:11:31;;;;;;;;;;;19.40;74.90;;;;;;5095007;28;19928;-62
2023/09/30 14:13:58;;;;;;;;;;;19.70;76.40;;;;;;5094605;28;19923;-62
2023/09/30 14:16:26;;;;;;;;;;;19.90;76.50;;;;;;5094991;28;19974;-62
2023/09/30 14:18:53;;;;;;;;;;;20.20;76.30;;;;;;5094619;28;19931;-63
2023/09/30 14:21:20;;;;;;;;;;;20.50;76.10;;;;;;5094098;28;19928;-61
2023/09/30 14:23:47;;;;;;;;;;;20.70;75.70;;;;;;5092995;28;19975;-62